ΕΜΥ, Εθνική Μετεωρολογική Υπηρεσία - Δελτία Καιρού, Προγνώσεις

ΑΕΡΟΝΑΥΤΙΛΙΑ

GREEK AIRPORTS CODES

LGKL 270520Z 00000KT 9999 FEW025 BKN030 BKN080 18/14 Q1011=

EUROPEAN AIRPORTS CODES

EDDB 270520Z AUTO 18009KT 9999 -RA BKN033 11/08 Q0994 TEMPO RA=